Time;durP1;ratioP1;P1;durP2;ratioP2;P2;SDS_P1;SDS_P2;PMS_P1;PMS_P2;Temp;Humidity;BMP_temperature;BMP_pressure;BME280_temperature;BME280_humidity;BME280_pressure;Samples;Min_cycle;Max_cycle;Signal;HPM_P1;HPM_P2
2023/05/09 00:01:45;;;;;;;515.57;485.87;;;13.40;56.30;;;;;;4993054;28;20196;-73
2023/05/09 00:04:11;;;;;;;416.60;391.33;;;13.40;58.10;;;;;;4993704;28;20203;-72
2023/05/09 00:06:36;;;;;;;493.57;464.57;;;13.40;58.30;;;;;;4993221;28;20176;-72
2023/05/09 00:09:03;;;;;;;360.10;338.40;;;13.40;58.20;;;;;;4993148;28;20181;-72
2023/05/09 00:11:29;;;;;;;355.17;334.37;;;13.40;59.00;;;;;;4992660;28;20204;-73
2023/05/09 00:13:55;;;;;;;392.60;368.80;;;13.40;59.30;;;;;;4992968;28;20435;-73
2023/05/09 00:16:22;;;;;;;450.20;423.40;;;13.30;58.30;;;;;;4993078;28;20169;-72
2023/05/09 00:18:48;;;;;;;410.23;386.03;;;13.30;59.20;;;;;;4992997;28;20199;-73
2023/05/09 00:21:14;;;;;;;450.20;422.37;;;13.30;58.20;;;;;;4992839;28;20852;-72
2023/05/09 00:23:39;;;;;;;377.37;355.07;;;13.30;58.00;;;;;;4992418;28;20658;-72
2023/05/09 00:26:05;;;;;;;351.27;329.97;;;13.20;59.10;;;;;;4992985;28;20596;-72
2023/05/09 00:28:31;;;;;;;417.40;392.17;;;13.20;59.10;;;;;;4993253;28;20267;-72
2023/05/09 00:30:57;;;;;;;360.77;338.90;;;13.20;59.10;;;;;;4992628;28;20324;-72
2023/05/09 00:33:25;;;;;;;366.83;344.10;;;13.10;59.00;;;;;;4992301;28;20180;-72
2023/05/09 00:35:54;;;;;;;399.73;376.10;;;13.10;59.50;;;;;;4992798;28;20263;-72
2023/05/09 00:38:22;;;;;;;339.67;317.90;;;13.10;58.50;;;;;;4992546;28;20547;-72
2023/05/09 00:40:47;;;;;;;361.27;338.57;;;13.00;59.20;;;;;;4992646;28;20809;-72
2023/05/09 00:43:13;;;;;;;311.47;291.70;;;13.00;59.20;;;;;;4991096;28;20424;-72
2023/05/09 00:45:39;;;;;;;380.77;357.63;;;13.00;59.90;;;;;;4992464;28;20665;-72
2023/05/09 00:48:04;;;;;;;326.00;305.90;;;12.90;59.60;;;;;;4992478;28;20234;-72
2023/05/09 00:50:30;;;;;;;323.80;302.67;;;12.90;61.10;;;;;;4992445;28;20279;-72
2023/05/09 00:52:57;;;;;;;502.30;471.60;;;12.90;60.80;;;;;;4992217;28;20910;-72
2023/05/09 00:55:22;;;;;;;364.33;341.87;;;12.80;60.70;;;;;;4992074;28;20238;-72
2023/05/09 00:57:48;;;;;;;420.83;396.03;;;12.80;61.50;;;;;;4992229;28;20510;-72
2023/05/09 01:00:14;;;;;;;327.27;307.17;;;12.80;62.00;;;;;;4992271;28;20231;-72
2023/05/09 01:02:46;;;;;;;327.63;306.33;;;12.80;63.80;;;;;;4992077;28;20176;-72
2023/05/09 01:05:11;;;;;;;304.77;284.60;;;12.80;62.40;;;;;;4992266;28;20428;-72
2023/05/09 01:07:44;;;;;;;360.13;337.77;;;12.80;61.00;;;;;;4992245;28;20902;-71
2023/05/09 01:10:27;;;;;;;362.83;340.43;;;12.70;62.30;;;;;;4991892;28;20210;-72
2023/05/09 01:13:03;;;;;;;320.93;300.40;;;12.70;63.00;;;;;;4991962;28;20925;-72
2023/05/09 01:15:45;;;;;;;359.23;336.93;;;12.70;63.70;;;;;;4991933;28;20788;-72
2023/05/09 01:18:24;;;;;;;338.97;317.80;;;12.70;63.70;;;;;;4990937;28;21147;-72
2023/05/09 01:21:14;;;;;;;416.77;391.70;;;12.80;63.80;;;;;;4992247;28;20437;-72
2023/05/09 01:23:43;;;;;;;347.20;325.93;;;12.80;63.00;;;;;;4992124;28;20421;-72
2023/05/09 01:26:17;;;;;;;346.17;325.10;;;12.70;63.70;;;;;;4991956;28;20467;-71
2023/05/09 01:29:00;;;;;;;327.70;307.37;;;12.70;63.70;;;;;;4971400;28;20426;-72
2023/05/09 01:31:27;;;;;;;309.87;290.13;;;12.70;63.30;;;;;;4971093;28;20463;-72
2023/05/09 01:33:56;;;;;;;381.50;359.13;;;12.70;63.70;;;;;;4971147;28;20926;-72
2023/05/09 01:36:25;;;;;;;374.90;351.27;;;12.80;63.10;;;;;;4971397;28;20526;-72
2023/05/09 01:38:52;;;;;;;404.10;380.97;;;12.80;63.90;;;;;;4988574;28;20510;-71
2023/05/09 01:41:20;;;;;;;397.37;374.10;;;12.80;62.10;;;;;;4990616;28;20960;-72
2023/05/09 01:43:47;;;;;;;370.70;348.50;;;12.80;63.10;;;;;;4991787;28;20415;-72
2023/05/09 01:46:16;;;;;;;373.10;350.33;;;12.80;61.20;;;;;;4990639;28;20937;-71
2023/05/09 01:48:43;;;;;;;355.43;334.13;;;12.70;61.50;;;;;;4991883;28;20943;-71
2023/05/09 01:51:09;;;;;;;359.40;337.23;;;12.70;61.10;;;;;;4991812;28;20806;-72
2023/05/09 01:53:35;;;;;;;324.20;303.53;;;12.70;61.50;;;;;;4991804;28;20947;-71
2023/05/09 01:56:03;;;;;;;381.17;358.43;;;12.60;61.60;;;;;;4992033;28;20419;-71
2023/05/09 01:58:32;;;;;;;384.93;361.37;;;12.60;63.00;;;;;;4991936;28;20266;-71
2023/05/09 02:00:59;;;;;;;346.43;325.50;;;12.60;63.60;;;;;;4991799;28;20443;-72
2023/05/09 02:03:25;;;;;;;372.93;349.17;;;12.60;63.60;;;;;;4991606;28;20510;-72
2023/05/09 02:05:51;;;;;;;389.90;366.73;;;12.70;64.10;;;;;;4991899;28;20423;-72
2023/05/09 02:08:20;;;;;;;350.50;328.67;;;12.70;63.70;;;;;;4990670;28;20513;-72
2023/05/09 02:10:47;;;;;;;384.57;362.10;;;12.70;62.90;;;;;;4991563;28;20455;-72
2023/05/09 02:13:12;;;;;;;369.07;346.27;;;12.70;62.60;;;;;;4991496;28;20495;-72
2023/05/09 02:15:39;;;;;;;429.63;404.70;;;12.60;62.50;;;;;;4991800;28;20420;-72
2023/05/09 02:18:04;;;;;;;413.77;389.03;;;12.60;62.10;;;;;;4995289;28;20658;-72
2023/05/09 02:20:30;;;;;;;330.53;309.93;;;12.50;62.10;;;;;;4995095;28;20442;-72
2023/05/09 02:22:56;;;;;;;498.00;467.07;;;12.50;63.20;;;;;;4994697;28;20604;-72
2023/05/09 02:25:22;;;;;;;348.10;327.27;;;12.50;61.90;;;;;;4993669;28;20187;-71
2023/05/09 02:27:48;;;;;;;380.00;356.03;;;12.50;63.50;;;;;;4994987;28;20173;-71
2023/05/09 02:30:19;;;;;;;349.33;327.90;;;12.50;63.50;;;;;;4995112;28;20836;-72
2023/05/09 02:32:47;;;;;;;374.43;351.40;;;12.50;63.20;;;;;;4994709;28;20443;-72
2023/05/09 02:35:15;;;;;;;366.93;344.00;;;12.50;63.30;;;;;;4994821;28;20420;-73
2023/05/09 02:37:41;;;;;;;343.13;321.93;;;12.50;63.50;;;;;;4994951;28;20465;-73
2023/05/09 02:40:08;;;;;;;358.10;335.70;;;12.50;62.40;;;;;;4994795;28;20475;-73
2023/05/09 02:42:34;;;;;;;408.13;382.53;;;12.50;63.40;;;;;;4994572;28;20447;-72
2023/05/09 02:44:59;;;;;;;368.33;345.67;;;12.50;62.40;;;;;;4993646;28;20909;-72
2023/05/09 02:47:25;;;;;;;407.33;383.50;;;12.40;63.40;;;;;;4993231;28;20933;-73
2023/05/09 02:49:50;;;;;;;431.17;404.40;;;12.50;63.50;;;;;;4993197;28;20223;-72
2023/05/09 02:52:16;;;;;;;401.43;376.40;;;12.50;62.40;;;;;;4994362;28;20184;-72
2023/05/09 02:54:41;;;;;;;326.70;305.50;;;12.50;62.50;;;;;;4994463;28;20184;-71
2023/05/09 02:57:07;;;;;;;340.07;318.70;;;12.50;62.70;;;;;;4994432;28;20544;-73
2023/05/09 02:59:32;;;;;;;403.27;379.73;;;12.50;62.40;;;;;;4993765;28;20523;-73
2023/05/09 03:01:58;;;;;;;403.47;378.10;;;12.50;62.60;;;;;;4993340;28;20646;-73
2023/05/09 03:04:24;;;;;;;308.37;287.83;;;12.50;62.00;;;;;;4993612;28;20191;-73
2023/05/09 03:06:50;;;;;;;384.93;361.00;;;12.50;61.80;;;;;;4994240;28;20170;-73
2023/05/09 03:09:15;;;;;;;402.43;376.77;;;12.50;60.80;;;;;;4994273;28;20470;-73
2023/05/09 03:11:41;;;;;;;375.23;352.50;;;12.50;60.70;;;;;;4992918;28;20654;-73
2023/05/09 03:14:07;;;;;;;369.03;346.43;;;12.50;61.10;;;;;;4993840;28;20270;-73
2023/05/09 03:16:33;;;;;;;308.43;288.33;;;12.50;60.60;;;;;;4992867;28;20181;-73
2023/05/09 03:18:59;;;;;;;347.53;325.53;;;12.50;60.10;;;;;;4993841;28;20467;-73
2023/05/09 03:21:24;;;;;;;340.23;319.10;;;12.50;59.80;;;;;;4993880;28;20518;-73
2023/05/09 03:23:50;;;;;;;338.33;315.20;;;12.40;59.00;;;;;;4993557;28;20189;-73
2023/05/09 03:26:15;;;;;;;381.37;358.63;;;12.40;59.80;;;;;;4992405;28;20721;-73
2023/05/09 03:28:41;;;;;;;364.53;341.80;;;12.40;58.60;;;;;;4991556;28;20179;-73
2023/05/09 03:31:06;;;;;;;398.63;373.90;;;12.30;59.30;;;;;;4992352;28;20212;-73
2023/05/09 03:33:32;;;;;;;324.97;303.83;;;12.30;61.10;;;;;;4993451;28;20181;-73
2023/05/09 03:35:58;;;;;;;347.87;326.43;;;12.30;60.40;;;;;;4992415;28;20187;-73
2023/05/09 03:38:23;;;;;;;393.80;368.57;;;12.20;61.00;;;;;;4993584;28;20303;-73
2023/05/09 03:40:50;;;;;;;266.67;248.30;;;12.10;60.90;;;;;;4993490;28;20564;-73
2023/05/09 03:43:15;;;;;;;391.20;368.03;;;12.10;61.60;;;;;;4993372;28;20227;-73
2023/05/09 03:45:41;;;;;;;319.03;299.07;;;12.10;62.50;;;;;;4993629;28;20814;-73
2023/05/09 03:48:08;;;;;;;375.00;351.77;;;12.10;62.40;;;;;;4993330;28;20602;-73
2023/05/09 03:50:34;;;;;;;337.33;316.37;;;12.10;63.10;;;;;;4993368;28;20222;-73
2023/05/09 03:53:00;;;;;;;370.50;348.80;;;12.10;63.20;;;;;;4991877;28;20415;-73
2023/05/09 03:55:25;;;;;;;349.73;328.53;;;12.00;63.40;;;;;;4993225;28;20411;-73
2023/05/09 03:57:51;;;;;;;377.53;354.20;;;12.00;63.00;;;;;;4993202;28;20172;-73
2023/05/09 04:00:16;;;;;;;410.93;386.83;;;12.00;62.40;;;;;;4992916;28;20199;-72
2023/05/09 04:02:42;;;;;;;384.43;360.97;;;12.00;62.60;;;;;;4991699;28;20187;-74
2023/05/09 04:05:08;;;;;;;342.83;322.17;;;12.00;63.00;;;;;;4993100;28;20204;-73
2023/05/09 04:07:33;;;;;;;389.37;365.63;;;12.00;63.00;;;;;;4993123;28;20280;-73
2023/05/09 04:09:59;;;;;;;353.77;332.07;;;12.00;63.00;;;;;;4992876;28;20209;-73
2023/05/09 04:12:25;;;;;;;361.30;339.17;;;12.00;63.00;;;;;;4992487;28;20183;-73
2023/05/09 04:14:51;;;;;;;348.37;327.03;;;11.90;63.00;;;;;;4992984;28;20177;-73
2023/05/09 04:17:16;;;;;;;361.57;339.33;;;12.00;63.00;;;;;;4991924;28;20180;-74
2023/05/09 04:19:42;;;;;;;323.83;302.60;;;12.00;62.30;;;;;;4992724;28;20204;-73
2023/05/09 04:22:07;;;;;;;388.23;364.90;;;12.00;63.00;;;;;;4992545;28;20937;-73
2023/05/09 04:24:33;;;;;;;339.97;318.33;;;12.00;61.10;;;;;;4992734;28;20177;-71
2023/05/09 04:26:59;;;;;;;359.60;338.73;;;12.00;62.20;;;;;;4992525;28;20176;-71
2023/05/09 04:29:25;;;;;;;479.13;451.10;;;12.00;61.80;;;;;;4992689;28;20173;-71
2023/05/09 04:31:50;;;;;;;400.43;377.23;;;12.00;62.50;;;;;;5040387;22;20513;-68
2023/05/09 04:34:16;;;;;;;444.03;418.73;;;12.00;63.10;;;;;;5022764;28;20178;-70
2023/05/09 04:36:42;;;;;;;399.80;376.90;;;12.00;63.80;;;;;;5022132;28;20214;-69
2023/05/09 04:39:09;;;;;;;414.93;390.73;;;12.00;65.70;;;;;;5022020;28;20211;-69
2023/05/09 04:41:34;;;;;;;441.63;415.73;;;12.00;66.80;;;;;;5007700;28;20193;-70
2023/05/09 04:44:00;;;;;;;399.37;375.90;;;12.10;67.00;;;;;;5003324;28;20431;-70
2023/05/09 04:46:26;;;;;;;389.00;363.87;;;12.10;67.40;;;;;;5003809;28;20168;-71
2023/05/09 04:48:52;;;;;;;410.67;387.27;;;12.20;68.80;;;;;;5003499;28;20426;-70
2023/05/09 04:51:17;;;;;;;426.87;402.93;;;12.30;69.20;;;;;;5002327;28;20218;-69
2023/05/09 04:53:43;;;;;;;395.20;372.63;;;12.40;69.70;;;;;;5002203;28;20176;-70
2023/05/09 04:56:09;;;;;;;380.17;358.80;;;12.50;69.60;;;;;;5001824;28;20567;-69
2023/05/09 04:58:37;;;;;;;456.77;429.13;;;12.40;69.10;;;;;;5000939;28;20207;-69
2023/05/09 05:01:04;;;;;;;408.97;384.30;;;12.40;69.40;;;;;;5003235;28;20309;-70
2023/05/09 05:03:30;;;;;;;430.40;404.93;;;12.60;69.40;;;;;;5003595;28;20426;-69
2023/05/09 05:05:56;;;;;;;631.50;590.27;;;12.80;70.20;;;;;;5001483;28;20436;-70
2023/05/09 05:08:21;;;;;;;477.43;450.60;;;12.80;69.00;;;;;;5002864;28;20443;-70
2023/05/09 05:10:48;;;;;;;490.13;462.30;;;13.00;68.80;;;;;;5003370;28;20204;-70
2023/05/09 05:13:14;;;;;;;485.00;456.90;;;13.00;68.30;;;;;;5002183;28;20190;-69
2023/05/09 05:15:40;;;;;;;463.60;437.17;;;13.10;67.70;;;;;;5001409;28;20451;-70
2023/05/09 05:18:06;;;;;;;482.70;454.90;;;13.40;64.80;;;;;;5000639;28;20184;-69
2023/05/09 05:20:31;;;;;;;476.70;449.67;;;13.50;64.50;;;;;;5000536;28;20458;-70
2023/05/09 05:22:57;;;;;;;468.93;441.23;;;13.80;63.10;;;;;;5000769;28;20181;-70
2023/05/09 05:25:23;;;;;;;424.20;400.70;;;13.90;59.80;;;;;;5001001;28;20242;-70
2023/05/09 05:27:49;;;;;;;487.50;460.27;;;14.20;57.90;;;;;;5001439;28;20177;-68
2023/05/09 05:30:14;;;;;;;418.93;394.07;;;14.50;52.90;;;;;;4998451;28;20412;-72
2023/05/09 05:32:40;;;;;;;386.10;363.30;;;14.70;50.00;;;;;;4998420;28;20180;-71
2023/05/09 05:35:06;;;;;;;462.80;436.30;;;15.00;47.70;;;;;;5000115;28;20181;-71
2023/05/09 05:37:32;;;;;;;424.20;399.67;;;15.20;46.00;;;;;;4998245;28;20609;-72
2023/05/09 05:39:58;;;;;;;464.23;437.73;;;15.60;43.20;;;;;;4999778;28;20495;-69
2023/05/09 05:42:23;;;;;;;479.70;451.87;;;16.00;38.70;;;;;;4999280;28;20659;-69
2023/05/09 05:44:49;;;;;;;355.17;333.37;;;16.30;36.50;;;;;;4999885;28;20259;-69
2023/05/09 05:47:14;;;;;;;465.93;437.70;;;16.40;32.90;;;;;;4999880;28;20264;-69
2023/05/09 05:49:40;;;;;;;387.90;364.87;;;16.90;31.70;;;;;;5000080;28;20184;-69
2023/05/09 05:52:05;;;;;;;299.53;281.20;;;17.40;29.50;;;;;;5000033;28;20200;-69
2023/05/09 05:54:31;;;;;;;398.10;372.00;;;17.90;27.10;;;;;;5003711;28;20275;-69
2023/05/09 05:56:56;;;;;;;616.67;569.97;;;18.40;24.10;;;;;;5003280;28;20183;-70
2023/05/09 05:59:22;;;;;;;413.50;385.03;;;18.90;20.50;;;;;;5003845;28;20212;-69
2023/05/09 06:01:47;;;;;;;577.87;537.80;;;19.60;20.70;;;;;;5002248;28;20200;-69
2023/05/09 06:04:13;;;;;;;363.50;339.67;;;20.60;17.80;;;;;;4999904;28;20201;-69
2023/05/09 06:06:39;;;;;;;637.43;590.67;;;21.40;15.30;;;;;;5000855;28;20181;-70
2023/05/09 06:09:05;;;;;;;672.27;622.83;;;22.40;13.70;;;;;;5002325;28;20187;-70
2023/05/09 06:11:30;;;;;;;574.73;534.53;;;23.20;9.70;;;;;;5001806;28;20207;-70
2023/05/09 06:13:56;;;;;;;747.33;682.53;;;23.80;8.60;;;;;;5001799;28;20180;-69
2023/05/09 06:16:21;;;;;;;533.40;498.23;;;24.40;6.80;;;;;;5001374;28;20646;-68
2023/05/09 06:18:47;;;;;;;587.80;548.33;;;24.60;6.50;;;;;;5002066;28;20200;-69
2023/05/09 06:21:13;;;;;;;601.00;560.20;;;25.10;5.80;;;;;;4999806;28;20211;-69
2023/05/09 06:23:39;;;;;;;683.27;633.03;;;25.60;4.90;;;;;;5000580;28;20416;-69
2023/05/09 06:26:04;;;;;;;647.07;595.90;;;25.90;4.80;;;;;;5001863;28;20173;-70
2023/05/09 06:28:30;;;;;;;715.53;661.60;;;26.30;3.40;;;;;;5000831;28;20192;-69
2023/05/09 06:30:55;;;;;;;684.13;627.40;;;27.30;1.40;;;;;;5001759;28;20216;-69
2023/05/09 06:33:21;;;;;;;748.27;685.40;;;28.60;1.00;;;;;;5001770;28;20290;-70
2023/05/09 06:35:46;;;;;;;739.60;676.33;;;30.30;1.00;;;;;;5002008;28;20192;-69
2023/05/09 06:38:12;;;;;;;817.63;746.90;;;31.60;1.00;;;;;;5004013;28;20603;-68
2023/05/09 06:40:37;;;;;;;818.67;746.87;;;32.20;1.00;;;;;;4999168;28;20570;-69
2023/05/09 06:43:03;;;;;;;807.27;736.30;;;33.30;1.00;;;;;;5000448;28;20203;-72
2023/05/09 06:45:29;;;;;;;870.30;792.20;;;33.60;1.00;;;;;;4990233;28;20203;-70
2023/05/09 06:47:55;;;;;;;864.67;789.13;;;33.80;1.00;;;;;;4992156;28;20172;-69
2023/05/09 06:50:21;;;;;;;787.33;721.53;;;33.90;1.00;;;;;;4999508;28;20460;-70
2023/05/09 06:52:47;;;;;;;817.70;746.43;;;32.20;1.00;;;;;;4988054;28;20247;-68
2023/05/09 06:55:12;;;;;;;826.17;753.27;;;31.30;1.00;;;;;;5025303;28;20172;-69
2023/05/09 06:57:41;;;;;;;809.93;739.73;;;30.40;1.00;;;;;;5027635;28;20445;-69
2023/05/09 07:00:08;;;;;;;821.73;750.03;;;29.90;1.00;;;;;;5025073;28;20207;-69
2023/05/09 07:02:34;;;;;;;670.57;620.47;;;28.40;1.00;;;;;;4998893;28;20515;-68
2023/05/09 07:05:00;;;;;;;795.53;728.87;;;29.10;1.00;;;;;;4985784;28;20471;-69
2023/05/09 07:07:25;;;;;;;818.67;749.47;;;28.30;1.00;;;;;;4985986;28;20726;-70
2023/05/09 07:09:51;;;;;;;801.63;733.67;;;28.00;1.00;;;;;;4985083;28;20189;-68
2023/05/09 07:12:17;;;;;;;796.10;730.90;;;27.50;1.00;;;;;;4986779;28;20280;-68
2023/05/09 07:14:42;;;;;;;860.40;787.60;;;25.50;1.00;;;;;;4986502;28;20456;-70
2023/05/09 07:17:08;;;;;;;756.17;699.87;;;24.60;1.40;;;;;;4983039;28;20250;-72
2023/05/09 07:19:34;;;;;;;900.47;829.67;;;22.80;5.80;;;;;;5003024;28;20282;-69
2023/05/09 07:22:00;;;;;;;737.50;682.00;;;22.10;7.40;;;;;;5004207;28;20197;-69
2023/05/09 07:24:25;;;;;;;749.80;697.80;;;21.50;39.60;;;;;;4998820;28;20189;-69
2023/05/09 07:26:51;;;;;;;700.70;652.70;;;21.30;27.10;;;;;;5000594;28;20192;-68
2023/05/09 07:29:18;;;;;;;634.17;592.13;;;21.80;24.70;;;;;;4998395;28;20188;-71
2023/05/09 07:31:44;;;;;;;630.10;587.70;;;22.70;16.10;;;;;;4999514;28;20213;-68
2023/05/09 07:34:10;;;;;;;654.33;609.20;;;23.00;11.90;;;;;;5004047;28;20470;-68
2023/05/09 07:36:36;;;;;;;721.93;668.37;;;22.80;11.10;;;;;;5006440;28;20215;-69
2023/05/09 07:39:03;;;;;;;748.00;692.53;;;22.70;10.70;;;;;;4994347;28;20201;-70
2023/05/09 07:41:30;;;;;;;698.90;649.07;;;22.60;10.30;;;;;;4981990;28;20540;-68
2023/05/09 07:43:55;;;;;;;672.17;624.77;;;22.60;9.90;;;;;;5017768;28;20522;-70
2023/05/09 07:46:21;;;;;;;672.73;627.00;;;23.30;9.50;;;;;;5000840;28;20451;-69
2023/05/09 07:48:47;;;;;;;622.13;579.47;;;23.40;9.90;;;;;;4999676;28;20208;-69
2023/05/09 07:51:12;;;;;;;753.40;699.27;;;23.60;7.80;;;;;;4996365;28;20219;-70
2023/05/09 07:53:38;;;;;;;660.40;612.50;;;23.60;8.00;;;;;;4998134;28;20177;-70
2023/05/09 07:56:05;;;;;;;677.47;627.93;;;23.20;8.50;;;;;;4994604;28;20192;-70
2023/05/09 07:58:31;;;;;;;593.43;556.83;;;23.00;10.90;;;;;;4979664;28;20205;-69
2023/05/09 08:00:57;;;;;;;664.50;619.07;;;23.40;10.50;;;;;;4994119;28;20460;-68
2023/05/09 08:03:22;;;;;;;603.17;559.83;;;23.50;9.90;;;;;;4980295;28;20462;-69
2023/05/09 08:05:51;;;;;;;642.83;601.13;;;23.80;10.10;;;;;;4977704;28;20437;-70
2023/05/09 08:08:17;;;;;;;752.80;696.73;;;23.80;10.20;;;;;;4994864;28;20216;-70
2023/05/09 08:10:42;;;;;;;685.60;635.90;;;23.70;9.30;;;;;;4996461;28;20463;-70
2023/05/09 08:13:08;;;;;;;676.87;627.73;;;24.20;9.20;;;;;;4998171;28;20606;-70
2023/05/09 08:15:34;;;;;;;730.40;675.90;;;25.70;7.60;;;;;;4997432;28;20184;-68
2023/05/09 08:17:59;;;;;;;675.40;627.33;;;27.30;5.20;;;;;;4997772;28;20189;-68
2023/05/09 08:20:25;;;;;;;821.07;749.17;;;27.60;5.80;;;;;;4996342;28;20673;-70
2023/05/09 08:22:50;;;;;;;620.87;573.33;;;28.90;2.10;;;;;;4997904;28;20211;-68
2023/05/09 08:25:17;;;;;;;640.87;594.37;;;28.50;1.00;;;;;;4997441;28;20233;-69
2023/05/09 08:27:42;;;;;;;763.30;702.37;;;28.20;2.20;;;;;;4997327;28;20177;-69
2023/05/09 08:30:08;;;;;;;712.53;656.43;;;28.20;1.70;;;;;;5000804;28;20426;-69
2023/05/09 08:32:34;;;;;;;750.67;689.23;;;26.80;2.60;;;;;;5004122;28;20264;-69
2023/05/09 08:35:00;;;;;;;713.73;657.07;;;25.50;4.30;;;;;;5003421;28;20419;-69
2023/05/09 08:37:26;;;;;;;689.70;636.97;;;25.30;4.90;;;;;;5002884;28;20236;-69
2023/05/09 08:39:51;;;;;;;800.17;735.27;;;25.00;5.60;;;;;;5001646;28;20724;-70
2023/05/09 08:42:21;;;;;;;679.53;631.40;;;25.00;5.80;;;;;;4994901;28;20448;-72
2023/05/09 08:44:47;;;;;;;733.50;677.87;;;25.80;5.00;;;;;;4995314;28;20181;-72
2023/05/09 08:47:13;;;;;;;711.27;654.87;;;26.90;3.60;;;;;;4994018;28;20955;-73
2023/05/09 08:49:40;;;;;;;793.57;728.40;;;27.90;2.50;;;;;;4994146;28;20579;-72
2023/05/09 08:52:06;;;;;;;765.13;702.67;;;28.40;1.00;;;;;;4997433;28;20452;-73
2023/05/09 08:54:32;;;;;;;691.73;637.03;;;28.50;1.00;;;;;;4993066;28;20494;-74
2023/05/09 08:57:00;;;;;;;690.23;636.57;;;27.30;1.50;;;;;;4992912;28;20467;-75
2023/05/09 08:59:26;;;;;;;775.43;712.27;;;25.30;4.20;;;;;;4992859;28;21027;-74
2023/05/09 09:01:53;;;;;;;718.43;666.30;;;23.90;6.90;;;;;;4992722;28;20443;-71
2023/05/09 09:04:19;;;;;;;644.53;598.33;;;23.20;8.80;;;;;;4993303;28;20419;-73
2023/05/09 09:06:45;;;;;;;665.43;620.83;;;22.50;9.60;;;;;;4993179;28;20786;-73
2023/05/09 09:09:11;;;;;;;731.67;679.53;;;22.30;11.00;;;;;;4991620;28;20196;-73
2023/05/09 09:11:39;;;;;;;639.67;596.40;;;22.20;11.60;;;;;;4992442;28;20530;-75
2023/05/09 09:14:12;;;;;;;639.73;597.03;;;22.40;11.80;;;;;;4993272;28;20416;-73
2023/05/09 09:16:40;;;;;;;613.73;573.10;;;22.30;12.20;;;;;;4993306;28;20482;-72
2023/05/09 09:19:10;;;;;;;694.97;648.90;;;22.30;11.40;;;;;;4991796;28;20526;-73
2023/05/09 09:21:36;;;;;;;736.93;684.60;;;22.10;12.20;;;;;;4991542;28;20455;-72
2023/05/09 09:24:03;;;;;;;640.77;597.90;;;22.20;12.20;;;;;;4993014;28;20794;-73
2023/05/09 09:26:30;;;;;;;649.47;605.20;;;22.20;12.00;;;;;;4994489;28;20510;-72
2023/05/09 09:28:56;;;;;;;819.10;753.10;;;22.10;11.50;;;;;;4996929;28;20440;-74
2023/05/09 09:31:24;;;;;;;769.40;709.77;;;22.10;11.20;;;;;;4997683;28;20506;-72
2023/05/09 09:33:50;;;;;;;730.93;678.10;;;21.70;11.70;;;;;;4995864;28;20494;-73
2023/05/09 09:36:25;;;;;;;717.10;666.37;;;21.40;12.40;;;;;;4996226;28;20423;-75
2023/05/09 09:38:57;;;;;;;656.00;611.63;;;21.40;12.40;;;;;;4996956;28;20470;-73
2023/05/09 09:41:35;;;;;;;675.27;629.50;;;21.30;13.00;;;;;;4995564;28;20455;-72
2023/05/09 09:44:19;;;;;;;567.87;534.73;;;21.40;13.00;;;;;;4996351;28;20423;-73
2023/05/09 09:46:49;;;;;;;622.63;578.27;;;21.60;13.20;;;;;;4996640;28;20442;-75
2023/05/09 09:49:20;;;;;;;607.20;566.43;;;21.70;13.30;;;;;;4996665;28;20466;-73
2023/05/09 09:51:50;;;;;;;618.03;577.43;;;21.60;12.30;;;;;;4996746;28;20458;-73
2023/05/09 09:54:16;;;;;;;731.20;679.60;;;21.50;13.10;;;;;;4996389;28;20933;-72
2023/05/09 09:56:44;;;;;;;646.80;604.93;;;21.40;13.80;;;;;;4996266;28;20518;-73
2023/05/09 09:59:20;;;;;;;646.37;604.20;;;21.40;15.00;;;;;;4995344;28;20227;-73
2023/05/09 10:01:53;;;;;;;701.03;648.87;;;21.50;13.40;;;;;;4995297;28;20504;-74
2023/05/09 10:04:18;;;;;;;606.93;566.90;;;21.80;11.90;;;;;;4997150;28;20494;-74
2023/05/09 10:06:52;;;;;;;702.43;652.40;;;21.80;12.40;;;;;;4996476;28;20423;-73
2023/05/09 10:09:17;;;;;;;653.73;608.30;;;22.00;13.50;;;;;;4996603;28;20181;-74
2023/05/09 10:11:46;;;;;;;732.67;677.87;;;22.10;12.90;;;;;;4995863;28;20446;-73
2023/05/09 10:14:11;;;;;;;813.60;748.63;;;22.20;12.30;;;;;;4996144;28;20177;-73
2023/05/09 10:16:37;;;;;;;637.40;594.97;;;22.20;12.40;;;;;;4995718;28;20439;-73
2023/05/09 10:19:03;;;;;;;645.30;601.00;;;22.00;12.90;;;;;;4995753;28;20267;-73
2023/05/09 10:21:30;;;;;;;672.80;627.40;;;22.00;12.90;;;;;;4995750;28;20204;-74
2023/05/09 10:23:56;;;;;;;655.07;608.83;;;22.00;12.70;;;;;;4996086;28;20497;-74
2023/05/09 10:26:27;;;;;;;705.90;656.70;;;22.00;13.40;;;;;;4995763;28;20876;-74
2023/05/09 10:28:55;;;;;;;728.33;676.33;;;22.10;12.10;;;;;;4996007;28;20428;-74
2023/05/09 10:31:26;;;;;;;574.40;537.67;;;22.30;10.70;;;;;;5035450;23;20490;-70
2023/05/09 10:33:52;;;;;;;644.83;599.70;;;22.20;11.40;;;;;;5034708;28;20783;-69
2023/05/09 10:36:20;;;;;;;643.97;599.70;;;22.20;12.10;;;;;;5033370;28;20813;-71
2023/05/09 10:39:04;;;;;;;705.23;655.10;;;22.20;11.30;;;;;;5032813;28;20493;-71
2023/05/09 10:41:30;;;;;;;699.13;648.73;;;22.20;11.50;;;;;;5024718;28;20439;-69
2023/05/09 10:43:57;;;;;;;633.43;590.63;;;22.50;11.70;;;;;;5014565;28;20414;-70
2023/05/09 10:46:23;;;;;;;676.20;629.53;;;22.40;11.00;;;;;;5014703;28;20510;-72
2023/05/09 10:48:49;;;;;;;776.20;719.60;;;22.40;11.90;;;;;;5013235;28;20471;-72
2023/05/09 10:51:16;;;;;;;752.53;693.20;;;22.40;13.00;;;;;;5014871;28;20609;-72
2023/05/09 10:53:49;;;;;;;607.20;570.27;;;22.50;11.90;;;;;;5013004;28;20422;-70
2023/05/09 10:56:28;;;;;;;624.20;585.47;;;22.60;13.10;;;;;;5014449;28;20430;-71
2023/05/09 10:58:54;;;;;;;720.00;667.27;;;23.00;11.50;;;;;;5013683;28;20458;-71
2023/05/09 11:01:36;;;;;;;786.27;727.50;;;23.40;9.90;;;;;;5013361;28;20454;-71
2023/05/09 11:04:09;;;;;;;647.13;604.23;;;23.10;9.70;;;;;;5010901;28;20649;-71
2023/05/09 11:06:44;;;;;;;642.53;596.77;;;23.40;9.90;;;;;;5015049;28;20433;-71
2023/05/09 11:09:32;;;;;;;687.03;639.23;;;23.40;8.80;;;;;;5014432;28;20668;-72
2023/05/09 11:12:04;;;;;;;578.83;540.60;;;23.70;8.50;;;;;;5013796;28;20443;-71
2023/05/09 11:14:31;;;;;;;716.23;664.33;;;23.80;7.90;;;;;;5014291;28;20423;-72
2023/05/09 11:16:58;;;;;;;668.33;621.60;;;23.80;8.90;;;;;;5014265;28;20411;-72
2023/05/09 11:19:45;;;;;;;696.97;647.57;;;23.90;8.60;;;;;;5014049;28;20831;-71
2023/05/09 11:22:20;;;;;;;752.17;694.30;;;23.50;9.30;;;;;;5012489;28;20462;-72
2023/05/09 11:24:48;;;;;;;692.87;641.40;;;23.90;7.80;;;;;;5013867;28;20718;-72
2023/05/09 11:27:21;;;;;;;717.57;663.00;;;24.00;8.40;;;;;;5013885;28;20837;-73
2023/05/09 11:29:52;;;;;;;670.07;623.23;;;24.20;8.10;;;;;;5012548;28;20928;-72
2023/05/09 11:32:19;;;;;;;904.50;816.37;;;24.30;6.90;;;;;;5013332;28;20455;-72
2023/05/09 11:34:46;;;;;;;673.73;623.20;;;24.40;6.70;;;;;;5013813;28;20853;-72
2023/05/09 11:37:15;;;;;;;661.20;611.70;;;24.30;8.10;;;;;;5013870;28;20434;-72
2023/05/09 11:40:03;;;;;;;745.83;687.90;;;24.60;6.80;;;;;;5013605;28;20481;-72
2023/05/09 11:42:29;;;;;;;696.57;645.50;;;24.70;6.20;;;;;;5011814;28;20450;-72
2023/05/09 11:44:56;;;;;;;700.07;649.23;;;24.70;5.60;;;;;;5013554;28;20422;-72
2023/05/09 11:47:22;;;;;;;613.57;567.90;;;24.80;5.60;;;;;;5013163;28;20514;-72
2023/05/09 11:49:49;;;;;;;648.47;599.70;;;24.80;6.30;;;;;;5012661;28;20411;-72
2023/05/09 11:52:18;;;;;;;644.90;595.43;;;24.60;5.70;;;;;;5011553;28;20462;-72
2023/05/09 11:54:44;;;;;;;672.37;623.87;;;24.20;5.80;;;;;;5011995;28;20426;-72
2023/05/09 11:57:10;;;;;;;690.73;640.07;;;24.50;6.00;;;;;;5012017;28;20423;-72
2023/05/09 11:59:37;;;;;;;595.53;552.20;;;24.70;6.20;;;;;;5013102;28;20536;-73
2023/05/09 12:02:06;;;;;;;753.90;693.10;;;24.80;4.70;;;;;;5013005;28;20438;-72
2023/05/09 12:04:33;;;;;;;708.13;655.97;;;24.90;5.00;;;;;;5013242;28;20407;-69
2023/05/09 12:06:59;;;;;;;638.43;593.60;;;25.20;4.60;;;;;;5012788;28;20513;-70
2023/05/09 12:09:33;;;;;;;707.33;651.73;;;25.20;4.40;;;;;;5013142;28;20419;-70
2023/05/09 12:12:00;;;;;;;815.97;745.13;;;25.20;4.10;;;;;;5012987;28;20492;-70